Time;durP1;ratioP1;P1;durP2;ratioP2;P2;SDS_P1;SDS_P2;PMS_P1;PMS_P2;Temp;Humidity;BMP_temperature;BMP_pressure;BME280_temperature;BME280_humidity;BME280_pressure;Samples;Min_cycle;Max_cycle;Signal;HPM_P1;HPM_P2
2024/03/18 00:01:49;;;;;;;2.97;2.00;;;11.60;91.40;;;;;;5068460;28;20436;-67
2024/03/18 00:04:15;;;;;;;2.70;1.88;;;11.60;91.20;;;;;;5068791;28;20135;-67
2024/03/18 00:06:40;;;;;;;4.68;2.40;;;11.60;91.20;;;;;;5067355;28;20055;-68
2024/03/18 00:09:07;;;;;;;3.58;2.35;;;11.60;91.20;;;;;;5067785;28;20021;-66
2024/03/18 00:11:32;;;;;;;3.42;2.00;;;11.70;91.30;;;;;;5068337;28;20048;-67
2024/03/18 00:13:58;;;;;;;2.20;1.67;;;11.70;91.20;;;;;;5068450;28;20452;-67
2024/03/18 00:16:24;;;;;;;2.28;1.63;;;11.70;91.10;;;;;;5068811;28;20041;-67
2024/03/18 00:18:50;;;;;;;2.25;1.60;;;11.70;91.20;;;;;;5068383;28;20028;-67
2024/03/18 00:21:15;;;;;;;2.38;1.60;;;11.70;91.20;;;;;;5068196;28;21814;-68
2024/03/18 00:23:41;;;;;;;1.55;1.33;;;11.80;91.10;;;;;;5068221;28;20029;-67
2024/03/18 00:26:07;;;;;;;1.85;1.30;;;11.90;91.10;;;;;;5065943;28;20031;-69
2024/03/18 00:28:33;;;;;;;1.90;1.52;;;11.90;90.90;;;;;;5067476;28;20090;-68
2024/03/18 00:30:58;;;;;;;2.17;1.77;;;12.00;90.80;;;;;;5068209;28;20029;-67
2024/03/18 00:33:24;;;;;;;2.10;1.70;;;12.00;90.80;;;;;;5066847;28;20028;-66
2024/03/18 00:35:57;;;;;;;2.10;1.63;;;12.10;90.70;;;;;;5065696;28;20035;-67
2024/03/18 00:38:22;;;;;;;3.38;2.17;;;12.10;90.80;;;;;;5065982;28;20040;-68
2024/03/18 00:41:44;;;;;;;3.05;1.88;;;12.00;90.80;;;;;;5067896;28;20025;-66
2024/03/18 00:43:37;;;;;;;2.72;1.95;;;12.00;90.80;;;;;;5067390;28;20106;-67
2024/03/18 00:46:02;;;;;;;1.63;1.48;;;11.90;91.10;;;;;;5069130;28;20671;-66
2024/03/18 00:48:29;;;;;;;2.05;1.58;;;11.90;91.10;;;;;;5071356;28;20025;-66
2024/03/18 00:50:55;;;;;;;2.75;2.08;;;11.90;91.10;;;;;;5071753;28;20103;-67
2024/03/18 00:53:20;;;;;;;2.95;1.70;;;11.80;91.40;;;;;;5072154;28;20112;-67
2024/03/18 00:55:46;;;;;;;2.35;1.95;;;11.80;91.50;;;;;;5068655;28;20498;-67
2024/03/18 00:58:12;;;;;;;3.08;2.00;;;11.80;91.70;;;;;;5070544;28;20107;-67
2024/03/18 01:00:37;;;;;;;2.67;1.88;;;11.80;91.60;;;;;;5071908;28;20035;-68
2024/03/18 01:03:03;;;;;;;1.60;1.45;;;11.80;91.60;;;;;;5072048;28;20036;-66
2024/03/18 01:05:29;;;;;;;1.67;1.42;;;11.80;91.50;;;;;;5071987;28;20028;-67
2024/03/18 01:07:55;;;;;;;1.95;1.50;;;11.80;91.60;;;;;;5071725;28;20491;-65
2024/03/18 01:10:21;;;;;;;2.30;1.42;;;11.80;91.60;;;;;;5071179;28;20028;-66
2024/03/18 01:12:46;;;;;;;2.85;1.80;;;11.80;91.60;;;;;;5068822;28;20356;-67
2024/03/18 01:15:12;;;;;;;2.40;1.60;;;11.90;91.90;;;;;;5070955;28;20071;-65
2024/03/18 01:17:38;;;;;;;1.50;1.40;;;11.90;91.60;;;;;;5076412;28;20059;-66
2024/03/18 01:20:09;;;;;;;2.20;1.50;;;11.90;91.50;;;;;;5081655;28;20114;-64
2024/03/18 01:22:35;;;;;;;2.00;1.60;;;12.00;91.60;;;;;;5070416;28;20037;-66
2024/03/18 01:25:01;;;;;;;1.88;1.38;;;12.00;91.50;;;;;;5077252;28;20025;-66
2024/03/18 01:27:28;;;;;;;1.60;1.30;;;12.10;91.50;;;;;;5070751;28;20028;-64
2024/03/18 01:29:55;;;;;;;2.17;1.50;;;12.10;91.30;;;;;;5071417;28;20032;-65
2024/03/18 01:32:22;;;;;;;1.60;1.35;;;12.20;91.30;;;;;;5068973;28;20471;-65
2024/03/18 01:34:48;;;;;;;2.10;1.40;;;12.20;91.20;;;;;;5070658;28;20024;-66
2024/03/18 01:37:14;;;;;;;1.80;1.42;;;12.30;91.20;;;;;;5075334;28;20070;-65
2024/03/18 01:39:40;;;;;;;2.97;1.50;;;12.20;91.10;;;;;;5080794;28;20032;-65
2024/03/18 01:42:06;;;;;;;3.22;2.42;;;12.20;91.20;;;;;;5070284;28;20067;-66
2024/03/18 01:44:31;;;;;;;2.67;2.00;;;12.20;91.20;;;;;;5071059;28;20036;-65
2024/03/18 01:46:57;;;;;;;3.17;2.00;;;12.20;91.20;;;;;;5071890;28;20027;-65
2024/03/18 01:49:22;;;;;;;1.65;1.30;;;12.20;91.20;;;;;;5068129;28;20119;-65
2024/03/18 01:51:49;;;;;;;3.00;1.60;;;12.20;91.30;;;;;;5068029;28;20116;-66
2024/03/18 01:54:15;;;;;;;2.67;1.98;;;12.20;91.30;;;;;;5071445;28;20066;-67
2024/03/18 01:56:40;;;;;;;2.58;1.70;;;12.10;91.40;;;;;;5071218;28;20495;-70
2024/03/18 01:59:06;;;;;;;2.42;1.60;;;12.10;91.50;;;;;;5070106;28;20020;-67
2024/03/18 02:01:31;;;;;;;2.45;1.60;;;12.10;91.50;;;;;;5069781;28;20024;-70
2024/03/18 02:04:11;;;;;;;2.08;1.67;;;12.10;91.60;;;;;;5072784;28;20070;-67
2024/03/18 02:06:41;;;;;;;1.45;1.35;;;12.10;91.50;;;;;;5079141;28;20474;-68
2024/03/18 02:09:08;;;;;;;3.13;1.67;;;12.20;91.50;;;;;;5066893;28;20024;-69
2024/03/18 02:11:33;;;;;;;2.20;1.63;;;12.30;91.50;;;;;;5068572;28;20029;-67
2024/03/18 02:13:59;;;;;;;4.35;2.70;;;12.30;91.40;;;;;;5074207;28;20059;-71
2024/03/18 02:16:25;;;;;;;3.30;2.50;;;12.30;91.40;;;;;;5069835;28;20078;-67
2024/03/18 02:18:51;;;;;;;3.28;2.30;;;12.30;91.40;;;;;;5069214;28;20036;-67
2024/03/18 02:21:16;;;;;;;3.00;1.75;;;12.30;91.40;;;;;;5073325;28;20016;-66
2024/03/18 02:23:42;;;;;;;2.88;1.90;;;12.30;91.30;;;;;;5070435;28;20029;-67
2024/03/18 02:26:08;;;;;;;1.80;1.50;;;12.40;91.30;;;;;;5074293;28;20025;-67
2024/03/18 02:28:43;;;;;;;2.33;1.58;;;12.40;91.20;;;;;;5067408;28;20021;-67
2024/03/18 02:31:09;;;;;;;6.05;3.53;;;12.40;91.20;;;;;;5069970;28;20107;-66
2024/03/18 02:33:35;;;;;;;5.10;3.65;;;12.40;91.30;;;;;;5072157;28;20099;-66
2024/03/18 02:36:04;;;;;;;4.45;3.05;;;12.40;91.40;;;;;;5068379;28;20150;-67
2024/03/18 02:38:30;;;;;;;3.80;2.55;;;12.40;91.50;;;;;;5071453;28;20047;-67
2024/03/18 02:40:56;;;;;;;3.13;2.20;;;12.30;91.50;;;;;;5070690;28;20021;-68
2024/03/18 02:43:22;;;;;;;5.43;3.50;;;12.30;91.50;;;;;;5070994;28;20024;-66
2024/03/18 02:45:47;;;;;;;6.90;4.95;;;12.30;91.50;;;;;;5074302;28;20032;-67
2024/03/18 02:48:13;;;;;;;5.40;3.50;;;12.30;91.70;;;;;;5065544;28;20039;-68
2024/03/18 02:50:39;;;;;;;4.40;2.90;;;12.30;91.80;;;;;;5076605;28;20046;-68
2024/03/18 02:53:09;;;;;;;3.78;2.85;;;12.30;91.80;;;;;;5073502;28;20024;-66
2024/03/18 02:55:35;;;;;;;4.47;2.80;;;12.40;91.70;;;;;;5072483;28;20063;-67
2024/03/18 02:58:01;;;;;;;3.53;2.40;;;12.40;91.70;;;;;;5070181;28;20028;-68
2024/03/18 03:00:27;;;;;;;4.57;2.78;;;12.40;91.70;;;;;;5073721;28;20013;-68
2024/03/18 03:02:52;;;;;;;2.90;2.30;;;12.40;91.60;;;;;;5068358;28;20533;-68
2024/03/18 03:05:18;;;;;;;3.63;2.50;;;12.50;91.60;;;;;;5067401;28;20039;-67
2024/03/18 03:07:43;;;;;;;4.13;2.60;;;12.50;91.60;;;;;;5068555;28;20481;-66
2024/03/18 03:10:09;;;;;;;7.20;3.97;;;12.50;91.60;;;;;;5069248;28;20526;-66
2024/03/18 03:12:35;;;;;;;7.88;5.03;;;12.50;91.60;;;;;;5068112;28;20490;-65
2024/03/18 03:15:01;;;;;;;4.60;3.30;;;12.40;91.80;;;;;;5073986;28;20029;-71
2024/03/18 03:17:27;;;;;;;4.03;2.95;;;12.50;91.80;;;;;;5071302;28;20052;-68
2024/03/18 03:19:53;;;;;;;4.70;2.60;;;12.50;91.80;;;;;;5066278;28;20074;-64
2024/03/18 03:22:19;;;;;;;5.22;2.90;;;12.60;91.80;;;;;;5069285;28;20021;-65
2024/03/18 03:24:47;;;;;;;3.58;2.50;;;12.60;91.70;;;;;;5068452;28;20029;-66
2024/03/18 03:27:12;;;;;;;4.22;2.95;;;12.60;91.70;;;;;;5071909;28;20025;-66
2024/03/18 03:29:38;;;;;;;4.45;2.80;;;12.60;91.70;;;;;;5069037;28;20391;-68
2024/03/18 03:32:04;;;;;;;3.20;2.30;;;12.60;91.70;;;;;;5068659;28;20032;-66
2024/03/18 03:34:29;;;;;;;3.88;2.40;;;12.60;91.70;;;;;;5076675;28;20020;-67
2024/03/18 03:36:55;;;;;;;3.67;2.47;;;12.70;91.70;;;;;;5068237;28;20032;-66
2024/03/18 03:39:22;;;;;;;4.18;2.38;;;12.70;91.70;;;;;;5066770;28;20050;-66
2024/03/18 03:41:48;;;;;;;5.28;3.85;;;12.70;91.70;;;;;;5071235;28;20485;-67
2024/03/18 03:44:14;;;;;;;5.10;3.20;;;12.60;91.80;;;;;;5070389;28;20032;-66
2024/03/18 03:46:39;;;;;;;4.93;3.58;;;12.70;91.80;;;;;;5072297;28;20699;-65
2024/03/18 03:49:05;;;;;;;5.30;3.42;;;12.70;91.80;;;;;;5073026;28;20153;-67
2024/03/18 03:51:31;;;;;;;4.15;2.88;;;12.60;91.90;;;;;;5068350;28;20395;-68
2024/03/18 03:53:57;;;;;;;4.07;2.80;;;12.60;91.90;;;;;;5078505;28;20046;-67
2024/03/18 03:56:24;;;;;;;2.85;2.38;;;12.60;91.90;;;;;;5069037;28;20474;-67
2024/03/18 03:58:51;;;;;;;3.20;2.20;;;12.60;91.90;;;;;;5068385;28;20078;-67
2024/03/18 04:01:18;;;;;;;4.03;2.47;;;12.60;92.00;;;;;;5067851;28;20027;-68
2024/03/18 04:03:44;;;;;;;2.75;2.08;;;12.60;92.00;;;;;;5069707;28;20386;-67
2024/03/18 04:06:10;;;;;;;3.90;2.08;;;12.50;92.10;;;;;;5071333;28;20031;-67
2024/03/18 04:08:36;;;;;;;3.25;2.40;;;12.50;92.10;;;;;;5074835;28;20024;-67
2024/03/18 04:11:02;;;;;;;2.95;2.25;;;12.50;92.20;;;;;;5068826;28;20444;-66
2024/03/18 04:13:28;;;;;;;4.50;3.00;;;12.60;92.20;;;;;;5072508;28;20070;-68
2024/03/18 04:15:54;;;;;;;5.38;3.30;;;12.60;92.20;;;;;;5066814;28;20088;-66
2024/03/18 04:18:20;;;;;;;4.10;2.60;;;12.60;92.20;;;;;;5075651;28;20116;-67
2024/03/18 04:20:46;;;;;;;4.05;2.60;;;12.60;92.20;;;;;;5076303;28;20024;-66
2024/03/18 04:23:11;;;;;;;3.08;2.22;;;12.70;92.10;;;;;;5083832;28;20048;-66
2024/03/18 04:25:37;;;;;;;3.83;2.85;;;12.70;92.10;;;;;;5079955;28;20475;-66
2024/03/18 04:28:03;;;;;;;2.90;2.15;;;12.60;92.10;;;;;;5069763;28;20033;-66
2024/03/18 04:30:32;;;;;;;3.78;2.63;;;12.60;92.20;;;;;;5071715;28;20028;-68
2024/03/18 04:32:58;;;;;;;4.70;2.70;;;12.60;92.20;;;;;;5067628;28;20063;-68
2024/03/18 04:35:23;;;;;;;3.83;2.78;;;12.60;92.20;;;;;;5079323;28;20470;-67
2024/03/18 04:37:54;;;;;;;4.63;3.10;;;12.60;92.20;;;;;;5073586;28;20025;-66
2024/03/18 04:40:21;;;;;;;4.00;2.80;;;12.50;92.20;;;;;;5073998;28;20017;-67
2024/03/18 04:42:47;;;;;;;5.65;4.18;;;12.50;92.20;;;;;;5079235;28;20166;-65
2024/03/18 04:45:17;;;;;;;6.50;4.18;;;12.50;92.30;;;;;;5069946;28;20095;-65
2024/03/18 04:47:50;;;;;;;4.30;3.00;;;12.50;92.40;;;;;;5070440;28;20036;-67
2024/03/18 04:50:20;;;;;;;4.60;2.90;;;12.50;92.40;;;;;;5070790;28;20016;-65
2024/03/18 04:52:46;;;;;;;4.45;2.85;;;12.50;92.30;;;;;;5071823;28;20020;-66
2024/03/18 04:55:11;;;;;;;4.53;2.75;;;12.50;92.40;;;;;;5071677;28;20028;-65
2024/03/18 04:57:37;;;;;;;4.20;3.10;;;12.50;92.30;;;;;;5073646;28;20066;-65
2024/03/18 05:00:11;;;;;;;3.35;2.55;;;12.50;92.30;;;;;;5071981;28;20103;-64
2024/03/18 05:02:38;;;;;;;3.92;2.65;;;12.50;92.30;;;;;;5074994;28;20753;-64
2024/03/18 05:05:04;;;;;;;5.80;4.15;;;12.60;92.30;;;;;;5078894;28;20029;-65
2024/03/18 05:07:30;;;;;;;6.28;4.38;;;12.60;92.40;;;;;;5070989;28;20499;-65
2024/03/18 05:09:56;;;;;;;5.28;3.33;;;12.50;92.40;;;;;;5072464;28;20033;-66
2024/03/18 05:12:21;;;;;;;3.65;2.55;;;12.60;92.50;;;;;;5070606;28;21506;-64
2024/03/18 05:14:50;;;;;;;5.32;3.20;;;12.60;92.40;;;;;;5072202;28;20017;-65
2024/03/18 05:17:16;;;;;;;5.03;3.42;;;12.60;92.40;;;;;;5070640;28;20070;-65
2024/03/18 05:19:42;;;;;;;7.60;5.40;;;12.60;92.40;;;;;;5070553;28;20376;-65
2024/03/18 05:22:07;;;;;;;6.28;4.30;;;12.60;92.60;;;;;;5071579;28;20410;-65
2024/03/18 05:24:33;;;;;;;7.03;4.30;;;12.60;92.60;;;;;;5073918;28;20498;-65
2024/03/18 05:26:59;;;;;;;9.23;5.25;;;12.60;92.60;;;;;;5080681;28;20379;-65
2024/03/18 05:29:25;;;;;;;11.57;6.88;;;12.60;92.60;;;;;;5073177;28;20037;-66
2024/03/18 05:31:51;;;;;;;8.68;5.28;;;12.50;93.00;;;;;;5072817;28;20028;-67
2024/03/18 05:34:17;;;;;;;9.23;5.45;;;12.50;93.10;;;;;;5070482;28;20021;-66
2024/03/18 05:36:43;;;;;;;11.38;5.70;;;12.50;93.10;;;;;;5078668;28;20044;-66
2024/03/18 05:39:08;;;;;;;8.48;5.65;;;12.50;93.20;;;;;;5073050;28;20099;-66
2024/03/18 05:41:35;;;;;;;9.18;5.78;;;12.50;93.30;;;;;;5071843;28;20388;-66
2024/03/18 05:44:02;;;;;;;6.20;4.00;;;12.50;93.30;;;;;;5078191;28;20564;-66
2024/03/18 05:46:27;;;;;;;5.82;3.70;;;12.50;93.30;;;;;;5075000;28;20024;-65
2024/03/18 05:48:53;;;;;;;7.20;4.80;;;12.60;93.30;;;;;;5073928;28;20486;-67
2024/03/18 05:51:18;;;;;;;9.48;6.25;;;12.60;93.20;;;;;;5078184;28;20032;-65
2024/03/18 05:53:44;;;;;;;8.55;6.00;;;12.50;93.30;;;;;;5075900;28;20024;-66
2024/03/18 05:56:10;;;;;;;9.38;5.28;;;12.50;93.50;;;;;;5068514;28;20060;-66
2024/03/18 05:58:41;;;;;;;6.45;4.38;;;12.50;93.50;;;;;;5079035;28;20046;-67
2024/03/18 06:01:13;;;;;;;8.15;5.22;;;12.50;93.50;;;;;;5077312;28;20442;-65
2024/03/18 06:03:45;;;;;;;5.78;3.75;;;12.50;93.50;;;;;;5068317;28;20027;-66
2024/03/18 06:06:10;;;;;;;7.28;4.57;;;12.50;93.50;;;;;;5070087;28;20115;-67
2024/03/18 06:08:37;;;;;;;10.07;5.47;;;12.60;93.50;;;;;;5071801;28;20103;-66
2024/03/18 06:11:04;;;;;;;7.57;5.25;;;12.50;93.50;;;;;;5074997;28;20086;-66
2024/03/18 06:13:30;;;;;;;7.45;4.88;;;12.50;93.60;;;;;;5068117;28;20025;-67
2024/03/18 06:15:56;;;;;;;7.55;4.80;;;12.60;93.70;;;;;;5069975;28;20103;-67
2024/03/18 06:18:21;;;;;;;6.07;3.83;;;12.50;93.70;;;;;;5071612;28;20103;-67
2024/03/18 06:20:50;;;;;;;6.55;4.13;;;12.60;93.70;;;;;;5073620;28;20029;-66
2024/03/18 06:23:18;;;;;;;6.50;4.43;;;12.60;93.60;;;;;;5070568;28;20032;-67
2024/03/18 06:25:59;;;;;;;8.23;5.40;;;12.60;93.60;;;;;;5076803;28;20040;-68
2024/03/18 06:28:32;;;;;;;5.53;3.78;;;12.60;93.60;;;;;;5070947;28;20455;-66
2024/03/18 06:30:58;;;;;;;9.13;5.38;;;12.60;93.70;;;;;;5074857;28;20501;-68
2024/03/18 06:33:25;;;;;;;6.55;4.60;;;12.60;93.70;;;;;;5065804;28;20028;-69
2024/03/18 06:35:54;;;;;;;5.47;3.55;;;12.60;93.80;;;;;;5077870;28;20020;-67
2024/03/18 06:38:26;;;;;;;6.85;4.10;;;12.60;93.70;;;;;;5073683;28;20048;-67
2024/03/18 06:40:52;;;;;;;9.60;6.53;;;12.60;93.70;;;;;;5074763;28;20432;-65
2024/03/18 06:43:18;;;;;;;9.27;5.32;;;12.60;93.90;;;;;;5066817;28;20104;-67
2024/03/18 06:45:44;;;;;;;8.73;5.82;;;12.60;94.00;;;;;;5069498;28;20107;-67
2024/03/18 06:48:10;;;;;;;7.43;4.70;;;12.60;94.10;;;;;;5072360;28;20073;-67
2024/03/18 06:50:37;;;;;;;8.07;5.25;;;12.60;94.10;;;;;;5072108;28;20422;-66
2024/03/18 06:53:03;;;;;;;7.30;3.97;;;12.60;94.10;;;;;;5074023;28;20694;-67
2024/03/18 06:55:30;;;;;;;5.47;3.55;;;12.70;94.10;;;;;;5080049;28;20025;-67
2024/03/18 06:57:56;;;;;;;9.32;5.32;;;12.70;94.00;;;;;;5069811;28;20020;-66
2024/03/18 07:00:23;;;;;;;6.80;4.22;;;12.60;94.10;;;;;;5075994;28;20070;-66
2024/03/18 07:02:52;;;;;;;5.18;3.45;;;12.70;94.10;;;;;;5074472;28;20033;-66
2024/03/18 07:05:19;;;;;;;6.90;3.95;;;12.70;94.10;;;;;;5072098;28;20495;-64
2024/03/18 07:07:45;;;;;;;4.50;2.83;;;12.70;94.00;;;;;;5067633;28;20074;-67
2024/03/18 07:10:11;;;;;;;11.50;6.40;;;12.80;94.00;;;;;;5064394;28;20032;-68
2024/03/18 07:12:38;;;;;;;7.80;4.68;;;12.70;94.10;;;;;;5066506;28;20032;-66
2024/03/18 07:15:09;;;;;;;6.20;3.55;;;12.70;94.20;;;;;;5070102;28;20105;-67
2024/03/18 07:17:35;;;;;;;4.97;3.50;;;12.70;94.10;;;;;;5067577;28;20028;-67
2024/03/18 07:20:06;;;;;;;5.35;3.38;;;12.70;94.10;;;;;;5071535;28;20052;-66
2024/03/18 07:22:35;;;;;;;5.72;3.08;;;12.70;94.10;;;;;;5065703;28;20035;-66
2024/03/18 07:25:01;;;;;;;4.93;3.13;;;12.70;94.10;;;;;;5064111;28;20636;-67
2024/03/18 07:27:27;;;;;;;5.47;3.10;;;12.70;94.10;;;;;;5075648;28;20100;-67
2024/03/18 07:29:57;;;;;;;5.00;3.30;;;12.70;94.10;;;;;;5069205;28;20028;-66
2024/03/18 07:32:25;;;;;;;4.93;3.00;;;12.80;94.00;;;;;;5071761;28;20032;-66
2024/03/18 07:34:51;;;;;;;5.47;3.45;;;12.80;94.00;;;;;;5068697;28;20024;-66
2024/03/18 07:37:17;;;;;;;5.25;2.80;;;12.80;93.90;;;;;;5067109;28;20082;-67
2024/03/18 07:39:44;;;;;;;6.55;3.70;;;12.90;93.80;;;;;;5068346;28;20028;-66
2024/03/18 07:42:11;;;;;;;5.93;3.70;;;12.80;93.80;;;;;;5064973;28;20013;-68
2024/03/18 07:44:40;;;;;;;5.05;3.28;;;12.90;93.80;;;;;;5069227;28;20538;-66
2024/03/18 07:47:06;;;;;;;4.93;3.30;;;12.90;93.80;;;;;;5068498;28;20020;-67
2024/03/18 07:49:35;;;;;;;4.60;3.00;;;12.90;93.70;;;;;;5071220;28;20054;-67
2024/03/18 07:52:01;;;;;;;7.55;4.75;;;13.00;93.70;;;;;;5062268;28;20737;-69
2024/03/18 07:54:35;;;;;;;7.72;4.70;;;13.00;93.90;;;;;;5065873;28;20029;-67
2024/03/18 07:57:01;;;;;;;8.43;5.45;;;13.00;93.70;;;;;;5064773;28;20016;-67
2024/03/18 07:59:27;;;;;;;7.35;4.20;;;13.00;93.60;;;;;;5062430;28;20073;-66
2024/03/18 08:01:53;;;;;;;7.65;4.22;;;13.00;93.90;;;;;;5061946;28;20066;-67
2024/03/18 08:04:19;;;;;;;5.18;3.40;;;13.10;93.60;;;;;;5065727;28;20546;-67
2024/03/18 08:06:48;;;;;;;4.25;3.10;;;13.20;93.50;;;;;;5064012;28;20043;-67
2024/03/18 08:09:14;;;;;;;3.90;2.80;;;13.20;93.40;;;;;;5063843;28;20425;-67
2024/03/18 08:11:44;;;;;;;4.55;2.83;;;13.20;93.30;;;;;;5063601;28;20031;-67
2024/03/18 08:14:09;;;;;;;4.38;2.83;;;13.30;93.40;;;;;;5063512;28;20066;-66
2024/03/18 08:16:35;;;;;;;6.00;3.17;;;13.40;93.30;;;;;;5063405;28;20029;-66
2024/03/18 08:19:03;;;;;;;5.40;3.17;;;13.40;93.30;;;;;;5067288;28;20111;-66
2024/03/18 08:21:29;;;;;;;5.28;3.55;;;13.50;93.30;;;;;;5064667;28;20073;-67
2024/03/18 08:23:55;;;;;;;6.85;3.95;;;13.50;93.30;;;;;;5065358;28;20035;-67
2024/03/18 08:26:20;;;;;;;5.95;3.75;;;13.50;93.20;;;;;;5067714;28;20155;-66
2024/03/18 08:28:46;;;;;;;5.15;3.47;;;13.50;93.10;;;;;;5063901;28;20802;-68
2024/03/18 08:31:12;;;;;;;5.90;3.45;;;13.50;93.10;;;;;;5067736;28;20551;-67
2024/03/18 08:33:37;;;;;;;5.75;3.20;;;13.60;93.10;;;;;;5065781;28;20029;-66
2024/03/18 08:36:04;;;;;;;4.63;2.95;;;13.70;93.10;;;;;;5068659;28;20017;-65
2024/03/18 08:38:29;;;;;;;4.93;2.90;;;13.70;93.00;;;;;;5062670;28;20101;-69
2024/03/18 08:40:55;;;;;;;4.95;3.03;;;13.70;93.00;;;;;;5066964;28;20079;-66
2024/03/18 08:43:22;;;;;;;6.43;3.78;;;13.70;93.00;;;;;;5065029;28;20073;-67
2024/03/18 08:45:55;;;;;;;6.32;3.67;;;13.70;92.90;;;;;;5061770;28;20505;-66
2024/03/18 08:48:21;;;;;;;5.32;3.38;;;13.60;92.90;;;;;;5060818;28;20024;-68
2024/03/18 08:50:47;;;;;;;6.20;3.63;;;13.60;93.00;;;;;;5064143;28;20044;-69
2024/03/18 08:53:13;;;;;;;7.22;4.03;;;13.70;93.00;;;;;;5062321;28;20120;-67
2024/03/18 08:55:39;;;;;;;4.32;2.95;;;13.70;92.90;;;;;;5062481;28;20462;-69
2024/03/18 08:58:05;;;;;;;5.13;3.00;;;13.70;92.90;;;;;;5056828;28;20021;-68
2024/03/18 09:00:31;;;;;;;4.97;2.90;;;13.70;92.90;;;;;;5066356;28;20391;-68
2024/03/18 09:02:57;;;;;;;5.43;3.13;;;13.60;92.90;;;;;;5065094;28;20055;-67
2024/03/18 09:05:22;;;;;;;5.38;3.13;;;13.60;92.90;;;;;;5065406;28;20024;-66
2024/03/18 09:07:48;;;;;;;6.38;3.17;;;13.60;93.00;;;;;;5064751;28;20036;-67
2024/03/18 09:10:14;;;;;;;4.43;2.63;;;13.60;92.90;;;;;;5069216;28;20020;-66
2024/03/18 09:12:41;;;;;;;4.15;2.70;;;13.60;92.80;;;;;;5069422;28;20024;-68
2024/03/18 09:15:07;;;;;;;5.32;3.03;;;13.60;92.80;;;;;;5072562;28;20070;-67
2024/03/18 09:17:32;;;;;;;7.72;4.15;;;13.50;92.80;;;;;;5067995;28;20561;-67
2024/03/18 09:19:58;;;;;;;4.85;3.25;;;13.50;92.80;;;;;;5065767;28;20107;-68
2024/03/18 09:22:24;;;;;;;4.78;2.85;;;13.50;92.90;;;;;;5068944;28;20119;-70
2024/03/18 09:24:50;;;;;;;4.40;2.70;;;13.50;92.90;;;;;;5068362;28;20135;-68
2024/03/18 09:27:16;;;;;;;4.63;2.90;;;13.40;92.90;;;;;;5071203;28;20027;-68
2024/03/18 09:29:42;;;;;;;4.07;2.80;;;13.40;92.90;;;;;;5071040;28;20040;-67
2024/03/18 09:32:08;;;;;;;4.00;2.50;;;13.40;92.90;;;;;;5070600;28;20689;-68
2024/03/18 09:34:33;;;;;;;4.43;2.80;;;13.40;92.90;;;;;;5068904;28;20052;-69
2024/03/18 09:36:59;;;;;;;5.38;3.22;;;13.30;92.90;;;;;;5069301;28;20021;-67
2024/03/18 09:39:24;;;;;;;4.47;2.80;;;13.30;93.00;;;;;;5070109;28;20032;-68
2024/03/18 09:41:53;;;;;;;5.03;2.83;;;13.40;92.90;;;;;;5074091;28;20033;-67
2024/03/18 09:44:20;;;;;;;6.82;3.60;;;13.30;92.90;;;;;;5068668;28;20039;-68
2024/03/18 09:46:47;;;;;;;5.72;3.38;;;13.30;92.90;;;;;;5068635;28;20031;-66
2024/03/18 09:49:20;;;;;;;5.32;3.38;;;13.40;92.90;;;;;;5068698;28;20059;-67
2024/03/18 09:51:47;;;;;;;6.20;3.42;;;13.40;92.90;;;;;;5069792;28;20067;-66
2024/03/18 09:54:21;;;;;;;6.75;3.03;;;13.40;92.90;;;;;;5065940;28;20033;-67
2024/03/18 09:57:13;;;;;;;5.28;2.63;;;13.40;92.80;;;;;;5069972;28;20487;-66
2024/03/18 09:59:40;;;;;;;4.90;3.28;;;13.50;92.70;;;;;;5068218;28;20039;-67
2024/03/18 10:02:14;;;;;;;4.63;2.67;;;13.50;92.60;;;;;;5066964;28;20041;-66
2024/03/18 10:04:39;;;;;;;3.83;2.28;;;13.60;92.60;;;;;;5067757;28;20040;-66
2024/03/18 10:07:11;;;;;;;3.92;2.55;;;13.70;92.50;;;;;;5070163;28;20020;-66
2024/03/18 10:09:37;;;;;;;4.72;3.20;;;13.80;92.40;;;;;;5065529;28;20030;-66
2024/03/18 10:12:03;;;;;;;4.72;2.97;;;13.80;92.30;;;;;;5067246;28;20024;-67
2024/03/18 10:14:29;;;;;;;6.45;3.30;;;14.00;92.20;;;;;;5067207;28;20033;-67
2024/03/18 10:16:56;;;;;;;5.70;2.80;;;14.00;92.00;;;;;;5069038;28;20323;-67
2024/03/18 10:19:22;;;;;;;4.63;2.88;;;14.00;92.00;;;;;;5069775;28;20100;-66
2024/03/18 10:21:47;;;;;;;4.68;3.00;;;14.10;91.90;;;;;;5069103;28;20103;-67
2024/03/18 10:24:16;;;;;;;4.95;2.92;;;14.10;91.90;;;;;;5067626;28;20027;-67
2024/03/18 10:26:44;;;;;;;5.00;2.75;;;14.10;91.80;;;;;;5063985;28;20028;-67
2024/03/18 10:29:11;;;;;;;4.75;2.80;;;14.10;91.90;;;;;;5067069;28;20032;-66
2024/03/18 10:31:38;;;;;;;5.72;3.28;;;14.30;91.80;;;;;;5071871;28;20128;-70
2024/03/18 10:34:07;;;;;;;5.70;3.30;;;14.40;91.70;;;;;;5069341;28;20502;-67
2024/03/18 10:36:36;;;;;;;4.35;2.78;;;14.50;91.60;;;;;;5068449;28;20054;-67
2024/03/18 10:39:07;;;;;;;5.70;3.00;;;14.70;91.40;;;;;;5069257;28;20033;-66
2024/03/18 10:41:40;;;;;;;4.82;2.88;;;14.90;91.20;;;;;;5071053;28;20040;-68
2024/03/18 10:44:17;;;;;;;4.32;2.80;;;14.90;91.00;;;;;;5068051;28;20032;-67
2024/03/18 10:46:44;;;;;;;4.03;2.33;;;14.90;90.90;;;;;;5070782;28;20075;-67
2024/03/18 10:49:16;;;;;;;5.40;2.88;;;14.90;90.90;;;;;;5066798;28;20044;-67
2024/03/18 10:51:44;;;;;;;5.18;2.70;;;14.90;90.90;;;;;;5064636;28;20016;-67
2024/03/18 10:54:16;;;;;;;3.70;2.40;;;15.00;90.90;;;;;;5070729;28;20392;-67
2024/03/18 10:56:45;;;;;;;2.90;1.92;;;14.90;90.80;;;;;;5068357;28;20036;-67
2024/03/18 10:59:14;;;;;;;4.85;2.65;;;14.90;90.80;;;;;;5062685;28;20096;-69
2024/03/18 11:01:40;;;;;;;3.60;2.10;;;14.80;90.90;;;;;;5068565;28;20479;-66
2024/03/18 11:04:19;;;;;;;3.65;1.98;;;14.80;91.00;;;;;;5069126;28;20098;-66
2024/03/18 11:06:49;;;;;;;3.80;2.17;;;14.70;91.10;;;;;;5067511;28;20038;-66
2024/03/18 11:09:18;;;;;;;3.28;2.08;;;14.70;91.10;;;;;;5067826;28;20031;-68
2024/03/18 11:11:44;;;;;;;4.22;2.17;;;14.60;91.20;;;;;;5066363;28;20036;-65
2024/03/18 11:14:12;;;;;;;5.82;2.80;;;14.50;91.20;;;;;;5066326;28;20078;-67
2024/03/18 11:16:46;;;;;;;3.90;2.30;;;14.50;91.20;;;;;;5068270;28;20028;-66
2024/03/18 11:19:20;;;;;;;3.83;2.33;;;14.40;91.30;;;;;;5066531;28;20040;-66
2024/03/18 11:22:04;;;;;;;5.05;2.80;;;14.40;91.30;;;;;;5070226;28;20024;-66
2024/03/18 11:24:31;;;;;;;4.93;2.78;;;14.40;91.30;;;;;;5064966;28;20024;-69
2024/03/18 11:26:58;;;;;;;3.95;2.58;;;14.30;91.30;;;;;;5063880;28;20032;-66
2024/03/18 11:29:38;;;;;;;4.32;2.95;;;14.30;91.40;;;;;;5065717;28;20044;-68
2024/03/18 11:32:04;;;;;;;5.95;3.03;;;14.20;91.40;;;;;;5065381;28;20033;-66
2024/03/18 11:34:34;;;;;;;5.65;2.83;;;14.20;91.40;;;;;;5065314;28;20036;-66
2024/03/18 11:37:00;;;;;;;6.13;3.33;;;14.20;91.50;;;;;;5065281;28;20036;-67
2024/03/18 11:39:27;;;;;;;7.88;3.85;;;14.30;91.50;;;;;;5069651;28;20270;-67
2024/03/18 11:42:03;;;;;;;5.65;3.40;;;14.30;91.40;;;;;;5068654;28;20028;-68
2024/03/18 11:44:31;;;;;;;5.20;3.20;;;14.60;91.30;;;;;;5066996;28;20021;-67
2024/03/18 11:47:04;;;;;;;4.53;3.08;;;14.80;91.00;;;;;;5065047;28;20568;-66
2024/03/18 11:49:30;;;;;;;7.78;3.72;;;15.10;90.80;;;;;;5066600;28;20029;-66
2024/03/18 11:51:57;;;;;;;6.13;3.00;;;15.20;90.60;;;;;;5065865;28;20063;-66
2024/03/18 11:54:24;;;;;;;5.70;2.97;;;15.30;90.40;;;;;;5097774;28;20113;-66
2024/03/18 11:56:49;;;;;;;6.00;3.45;;;15.50;90.30;;;;;;5067767;28;20819;-67
2024/03/18 11:59:15;;;;;;;7.82;4.47;;;15.60;90.10;;;;;;5062157;28;20091;-68
2024/03/18 12:01:41;;;;;;;10.77;5.57;;;15.80;89.80;;;;;;5063606;28;20021;-66
2024/03/18 12:04:07;;;;;;;11.98;5.53;;;16.00;89.30;;;;;;5063808;28;20418;-66
2024/03/18 12:06:38;;;;;;;9.13;4.28;;;16.00;88.30;;;;;;5063716;28;20012;-67
2024/03/18 12:09:05;;;;;;;8.98;4.18;;;16.20;88.20;;;;;;5066346;28;20483;-67
2024/03/18 12:11:32;;;;;;;6.78;3.70;;;16.30;87.80;;;;;;5066666;28;20021;-67
2024/03/18 12:13:58;;;;;;;6.43;3.75;;;16.30;87.50;;;;;;5065681;28;20044;-67
2024/03/18 12:16:25;;;;;;;7.60;3.83;;;16.40;87.60;;;;;;5062088;28;20471;-66
2024/03/18 12:18:51;;;;;;;5.00;3.00;;;16.50;87.50;;;;;;5065194;28;20039;-67
2024/03/18 12:21:17;;;;;;;8.57;5.28;;;16.60;87.20;;;;;;5068969;28;20105;-69
2024/03/18 12:29:22;;;;;;;11.10;5.05;;;16.40;85.80;;;;;;5066057;28;20097;-66
2024/03/18 12:31:48;;;;;;;7.25;3.42;;;16.30;85.50;;;;;;5064172;28;20151;-66
2024/03/18 12:34:13;;;;;;;5.93;3.00;;;16.30;85.90;;;;;;5064479;28;20555;-67
2024/03/18 12:36:40;;;;;;;4.05;2.60;;;16.30;86.10;;;;;;5065843;28;20108;-68
2024/03/18 12:39:08;;;;;;;4.40;2.65;;;16.30;86.10;;;;;;5064232;28;20016;-66
2024/03/18 12:41:37;;;;;;;4.18;2.47;;;16.30;86.20;;;;;;5062634;28;20028;-67
2024/03/18 12:44:04;;;;;;;2.70;1.80;;;16.30;86.00;;;;;;5071482;28;20028;-67
2024/03/18 12:46:30;;;;;;;3.47;2.15;;;16.40;86.10;;;;;;5072523;28;20024;-68
2024/03/18 12:48:55;;;;;;;3.75;2.15;;;16.40;86.00;;;;;;5069531;28;20032;-67
2024/03/18 12:51:21;;;;;;;3.17;2.13;;;16.40;86.00;;;;;;5069999;28;20074;-67